TimeEDT,TemperatureF,Dew PointF,Humidity,Sea Level PressureIn,VisibilityMPH,Wind Direction,Wind SpeedMPH,Gust SpeedMPH,PrecipitationIn,Events,Conditions,WindDirDegrees,DateUTC
12:53 AM,61.0,48.9,64,30.12,10.0,Calm,Calm,-,N/A,,Clear,0,2012-10-25 04:53:00
1:53 AM,57.9,48.9,72,30.12,10.0,Calm,Calm,-,N/A,,Clear,0,2012-10-25 05:53:00
2:53 AM,59.0,48.9,69,30.12,10.0,Calm,Calm,-,N/A,,Clear,0,2012-10-25 06:53:00
3:53 AM,57.0,48.9,74,30.11,10.0,Calm,Calm,-,N/A,,Clear,0,2012-10-25 07:53:00
4:53 AM,57.9,48.9,72,30.10,10.0,Calm,Calm,-,N/A,,Clear,0,2012-10-25 08:53:00
5:53 AM,52.0,48.0,86,30.11,10.0,Calm,Calm,-,N/A,,Clear,0,2012-10-25 09:53:00
6:53 AM,55.9,48.0,75,30.12,10.0,Calm,Calm,-,N/A,,Clear,0,2012-10-25 10:53:00
7:53 AM,53.1,48.9,86,30.13,10.0,Calm,Calm,-,N/A,,Clear,0,2012-10-25 11:53:00
8:53 AM,55.9,50.0,80,30.14,10.0,Calm,Calm,-,N/A,,Clear,0,2012-10-25 12:53:00
9:53 AM,64.9,51.1,61,30.14,10.0,Calm,Calm,-,N/A,,Clear,0,2012-10-25 13:53:00
10:53 AM,72.0,50.0,46,30.13,10.0,Calm,Calm,-,N/A,,Clear,0,2012-10-25 14:53:00
11:53 AM,78.1,48.9,36,30.12,10.0,Variable,3.5,-,N/A,,Clear,0,2012-10-25 15:53:00
12:53 PM,81.0,46.9,30,30.10,10.0,Variable,5.8,-,N/A,,Clear,0,2012-10-25 16:53:00
1:53 PM,82.0,45.0,27,30.07,10.0,Calm,Calm,-,N/A,,Clear,0,2012-10-25 17:53:00
2:53 PM,82.9,46.0,27,30.04,10.0,South,4.6,-,N/A,,Clear,190,2012-10-25 18:53:00
3:53 PM,84.0,46.0,26,30.03,10.0,Variable,3.5,-,N/A,,Clear,0,2012-10-25 19:53:00
4:53 PM,84.0,46.0,26,30.01,10.0,WNW,3.5,-,N/A,,Clear,300,2012-10-25 20:53:00
5:53 PM,82.0,46.9,29,30.02,10.0,Calm,Calm,-,N/A,,Clear,0,2012-10-25 21:53:00
6:53 PM,77.0,48.0,36,30.03,10.0,Calm,Calm,-,N/A,,Clear,0,2012-10-25 22:53:00
7:53 PM,75.0,48.9,40,30.05,10.0,SE,12.7,-,N/A,,Clear,140,2012-10-25 23:53:00
8:53 PM,70.0,50.0,49,30.05,10.0,SSE,5.8,-,N/A,,Clear,150,2012-10-26 00:53:00
9:53 PM,70.0,50.0,49,30.05,10.0,SSE,9.2,-,N/A,,Clear,150,2012-10-26 01:53:00
10:53 PM,69.1,48.9,49,30.05,10.0,Calm,Calm,-,N/A,,Clear,0,2012-10-26 02:53:00
11:53 PM,66.0,48.9,54,30.05,10.0,SSE,3.5,-,N/A,,Clear,160,2012-10-26 03:53:00